Thursday, May 24, 2018, 5:38 AM EDT
Back to Local

KCEF, Chicopee Falls / Westover Air Force Base

Location: Chicopee, MA, United States Lat: 42.2
Local Time: 5:38 AM EDT ( 9:38 GMT) Lon: -72.533
Time Zone: US/Eastern Elev: 246 ft

Show me the last for .
Show Decoded

2018-05-24 04:56 METAR KCEF 240856Z AUTO 05005KT 10SM CLR 09/08 A3003 RMK AO2 SLP174 T00900082
                 53013 =
2018-05-24 03:56 METAR KCEF 240756Z AUTO 05004KT 10SM CLR 10/09 A3001 RMK AO2 SLP168 T00950087 =
2018-05-24 02:56 METAR KCEF 240656Z AUTO 00000KT 10SM CLR 11/10 A2999 RMK AO2 SLP161 T01130102 =
2018-05-24 01:56 METAR KCEF 240556Z AUTO 00000KT 10SM CLR 11/10 A2999 RMK AO2 DZB0456E03 SLP161
                 P0000 60000 T01120099 10251 20109 52005 =
2018-05-24 00:56 METAR KCEF 240456Z AUTO 00000KT 10SM CLR 12/10 A2999 RMK AO2
                 RAB0356E0358DZB26E31 SLP161 P0000 T01230095 402890121 =
2018-05-23 23:56 METAR KCEF 240356Z AUTO 00000KT 10SM CLR 16/10 A2998 RMK AO2
                 DZB16E38DZB39E40RAB40 SLP157 P0000 T01620096 =
2018-05-23 22:56 METAR KCEF 240256Z 31006KT 10SM FEW250 19/09 A2998 RMK AO2A SLP157 T01900092
                 52028 =
2018-05-23 21:56 METAR KCEF 240156Z 29008KT 10SM FEW150 FEW250 22/09 A2996 RMK AO2A SLP150
                 T02180090 =
2018-05-23 20:56 METAR KCEF 240056Z 30009G17KT 10SM FEW080 SCT170 24/07 A2992 RMK AO2A SLP137
                 T02360072 =
2018-05-23 19:56 METAR KCEF 232356Z 31009KT 10SM FEW065 FEW130 SCT180 25/07 A2989 RMK AO2A SLP127
                 T02540070 10289 20254 53012 =
2018-05-23 18:56 METAR KCEF 232256Z 27012KT 10SM FEW070 SCT100 BKN180 27/09 A2987 RMK AO2A SLP120
                 T02650089 =
2018-05-23 17:56 METAR KCEF 232156Z 29013G17KT 10SM SCT065 SCT200 28/09 A2986 RMK AO2A SLP117
                 T02780086 =
2018-05-23 16:56 METAR KCEF 232056Z 35011KT 10SM FEW065 29/07 A2986 RMK AO2A SLP116 T02860066
                 56004 =
2018-05-23 15:56 METAR KCEF 231956Z 31011KT 10SM FEW050 FEW250 29/07 A2986 RMK AO2A SLP116
                 T02860072 =
2018-05-23 14:56 METAR KCEF 231856Z 32012G18KT 10SM SCT035 SCT250 28/09 A2986 RMK AO2A SLP117
                 T02800088 =
2018-05-23 13:56 METAR KCEF 231756Z 35006KT 10SM FEW030 FEW250 27/11 A2987 RMK AO2A SLP120
                 T02700110 10270 20146 57010 =
2018-05-23 12:56 METAR KCEF 231656Z 32007KT 10SM FEW030 FEW250 26/11 A2987 RMK AO2A SLP120
                 T02560114 =
2018-05-23 11:56 METAR KCEF 231556Z 34003KT 10SM FEW030 FEW250 24/13 A2988 RMK AO2A SLP124
                 T02390125 =
2018-05-23 10:56 METAR KCEF 231456Z 34009KT 10SM FEW035 SCT250 22/13 A2990 RMK AO2A SLP131
                 T02220130 52003 =
2018-05-23 09:56 METAR KCEF 231356Z 34007KT 10SM FEW030 SCT250 20/14 A2989 RMK AO2A SLP127
                 T02000137 =
2018-05-23 08:56 METAR KCEF 231256Z 06003KT 10SM FEW029 FEW100 SCT250 17/13 A2989 RMK AO2A SLPNO
                 T01690132 =
2018-05-23 07:56 METAR KCEF 231156Z 13003KT 6SM BR FEW004 SCT010 SCT250 15/13 A2989 RMK AO2A
                 SLP128 70004 T01450130 10145 20125 52004 =
2018-05-23 07:41 METAR KCEF 231141Z 00000KT 6SM BR SCT004 SCT250 14/13 A2989 RMK AO2A SLP128 =
2018-05-23 07:26 METAR KCEF 231126Z 00000KT 2 1/2SM BR OVC004 14/13 A2989 RMK AO2A SLP128 =
2018-05-23 06:56 METAR KCEF 231056Z 00000KT 2SM BR OVC003 13/13 A2988 RMK AO2A SLP125 T01320126 =
2018-05-23 05:56 METAR KCEF 230956Z AUTO 20003KT 7SM OVC003 13/12 A2988 RMK AO2 SLP124 T01290123
                 =

Support USWX by starting your Amazon purchase here.